sensor_id;sensor_type;location;lat;lon;timestamp;temperature;humidity
21493;DHT22;10908;50.690;4.400;2024-03-23T00:52:52;9.10;82.50
21493;DHT22;10908;50.690;4.400;2024-03-23T00:55:18;9.00;83.20
21493;DHT22;10908;50.690;4.400;2024-03-23T00:57:43;8.90;83.60
21493;DHT22;10908;50.690;4.400;2024-03-23T01:00:09;8.80;84.10
21493;DHT22;10908;50.690;4.400;2024-03-23T01:02:36;9.00;83.90
21493;DHT22;10908;50.690;4.400;2024-03-23T01:05:02;9.00;83.80
21493;DHT22;10908;50.690;4.400;2024-03-23T01:07:27;8.90;84.20
21493;DHT22;10908;50.690;4.400;2024-03-23T01:09:53;8.80;84.10
21493;DHT22;10908;50.690;4.400;2024-03-23T01:12:19;8.80;84.60
21493;DHT22;10908;50.690;4.400;2024-03-23T01:14:44;8.80;85.10
21493;DHT22;10908;50.690;4.400;2024-03-23T01:17:10;9.20;84.40
21493;DHT22;10908;50.690;4.400;2024-03-23T01:19:35;9.30;83.10
21493;DHT22;10908;50.690;4.400;2024-03-23T01:22:01;9.30;83.00
21493;DHT22;10908;50.690;4.400;2024-03-23T01:24:27;9.00;83.60
21493;DHT22;10908;50.690;4.400;2024-03-23T01:26:52;9.10;83.80
21493;DHT22;10908;50.690;4.400;2024-03-23T01:29:18;8.90;83.70
21493;DHT22;10908;50.690;4.400;2024-03-23T01:31:44;9.10;83.70
21493;DHT22;10908;50.690;4.400;2024-03-23T01:34:09;9.10;82.60
21493;DHT22;10908;50.690;4.400;2024-03-23T01:36:35;8.80;82.90
21493;DHT22;10908;50.690;4.400;2024-03-23T01:39:00;8.60;83.70
21493;DHT22;10908;50.690;4.400;2024-03-23T01:41:26;8.60;84.30
21493;DHT22;10908;50.690;4.400;2024-03-23T01:43:53;8.50;84.50
21493;DHT22;10908;50.690;4.400;2024-03-23T01:46:20;8.70;84.70
21493;DHT22;10908;50.690;4.400;2024-03-23T01:48:46;8.80;84.40
21493;DHT22;10908;50.690;4.400;2024-03-23T01:51:13;8.60;84.30
21493;DHT22;10908;50.690;4.400;2024-03-23T01:53:38;8.60;84.50
21493;DHT22;10908;50.690;4.400;2024-03-23T01:56:05;8.60;85.00
21493;DHT22;10908;50.690;4.400;2024-03-23T01:58:31;8.90;84.50
21493;DHT22;10908;50.690;4.400;2024-03-23T02:00:57;8.70;84.50
21493;DHT22;10908;50.690;4.400;2024-03-23T02:03:27;8.70;85.00
21493;DHT22;10908;50.690;4.400;2024-03-23T02:05:54;8.80;84.70
21493;DHT22;10908;50.690;4.400;2024-03-23T02:08:21;9.00;84.50
21493;DHT22;10908;50.690;4.400;2024-03-23T02:10:51;9.00;84.40
21493;DHT22;10908;50.690;4.400;2024-03-23T02:13:18;9.00;84.20
21493;DHT22;10908;50.690;4.400;2024-03-23T02:15:44;9.10;84.20
21493;DHT22;10908;50.690;4.400;2024-03-23T02:18:10;9.10;84.20
21493;DHT22;10908;50.690;4.400;2024-03-23T02:20:36;9.30;83.80
21493;DHT22;10908;50.690;4.400;2024-03-23T02:23:03;9.30;83.70
21493;DHT22;10908;50.690;4.400;2024-03-23T02:25:29;9.30;83.60
21493;DHT22;10908;50.690;4.400;2024-03-23T02:27:54;9.30;83.60
21493;DHT22;10908;50.690;4.400;2024-03-23T02:30:21;9.30;83.60
21493;DHT22;10908;50.690;4.400;2024-03-23T02:32:46;9.30;83.60
21493;DHT22;10908;50.690;4.400;2024-03-23T02:35:12;9.20;83.90
21493;DHT22;10908;50.690;4.400;2024-03-23T02:37:37;9.10;84.30
21493;DHT22;10908;50.690;4.400;2024-03-23T02:40:03;9.10;84.60
21493;DHT22;10908;50.690;4.400;2024-03-23T02:42:29;9.10;84.70
21493;DHT22;10908;50.690;4.400;2024-03-23T02:44:55;9.00;84.80
21493;DHT22;10908;50.690;4.400;2024-03-23T02:47:20;9.00;85.20
21493;DHT22;10908;50.690;4.400;2024-03-23T02:49:46;9.10;85.30
21493;DHT22;10908;50.690;4.400;2024-03-23T02:52:11;9.10;85.40
21493;DHT22;10908;50.690;4.400;2024-03-23T02:54:37;9.10;85.60
21493;DHT22;10908;50.690;4.400;2024-03-23T02:57:03;9.10;85.40
21493;DHT22;10908;50.690;4.400;2024-03-23T02:59:29;9.10;85.50
21493;DHT22;10908;50.690;4.400;2024-03-23T03:01:54;9.10;85.70
21493;DHT22;10908;50.690;4.400;2024-03-23T03:04:21;9.00;85.90
21493;DHT22;10908;50.690;4.400;2024-03-23T03:06:47;9.00;85.80
21493;DHT22;10908;50.690;4.400;2024-03-23T03:09:13;9.10;85.90
21493;DHT22;10908;50.690;4.400;2024-03-23T03:11:38;9.30;85.70
21493;DHT22;10908;50.690;4.400;2024-03-23T03:14:04;9.20;85.80
21493;DHT22;10908;50.690;4.400;2024-03-23T03:16:35;9.10;85.70
21493;DHT22;10908;50.690;4.400;2024-03-23T03:19:09;9.20;85.70
21493;DHT22;10908;50.690;4.400;2024-03-23T03:21:55;9.20;85.50
21493;DHT22;10908;50.690;4.400;2024-03-23T03:24:21;9.10;85.00
21493;DHT22;10908;50.690;4.400;2024-03-23T03:26:47;9.20;85.10
21493;DHT22;10908;50.690;4.400;2024-03-23T03:29:12;9.10;84.90
21493;DHT22;10908;50.690;4.400;2024-03-23T03:31:39;9.10;85.00
21493;DHT22;10908;50.690;4.400;2024-03-23T03:34:05;9.10;84.90
21493;DHT22;10908;50.690;4.400;2024-03-23T03:36:30;9.10;84.90
21493;DHT22;10908;50.690;4.400;2024-03-23T03:38:56;9.10;84.70
21493;DHT22;10908;50.690;4.400;2024-03-23T03:41:22;9.00;84.70
21493;DHT22;10908;50.690;4.400;2024-03-23T03:43:47;9.10;84.70
21493;DHT22;10908;50.690;4.400;2024-03-23T03:46:13;9.10;84.50
21493;DHT22;10908;50.690;4.400;2024-03-23T03:48:38;9.00;84.30
21493;DHT22;10908;50.690;4.400;2024-03-23T03:51:04;9.00;84.20
21493;DHT22;10908;50.690;4.400;2024-03-23T03:53:31;8.90;84.50
21493;DHT22;10908;50.690;4.400;2024-03-23T03:56:00;8.90;84.30
21493;DHT22;10908;50.690;4.400;2024-03-23T03:58:26;8.90;84.00
21493;DHT22;10908;50.690;4.400;2024-03-23T04:00:51;9.00;84.10
21493;DHT22;10908;50.690;4.400;2024-03-23T04:03:17;8.90;83.70
21493;DHT22;10908;50.690;4.400;2024-03-23T04:05:42;9.00;83.70
21493;DHT22;10908;50.690;4.400;2024-03-23T04:08:08;8.90;83.90
21493;DHT22;10908;50.690;4.400;2024-03-23T04:10:34;8.90;83.90
21493;DHT22;10908;50.690;4.400;2024-03-23T04:13:00;9.00;83.90
21493;DHT22;10908;50.690;4.400;2024-03-23T04:15:26;8.90;83.90
21493;DHT22;10908;50.690;4.400;2024-03-23T04:17:52;9.00;83.70
21493;DHT22;10908;50.690;4.400;2024-03-23T04:20:18;9.00;83.50
21493;DHT22;10908;50.690;4.400;2024-03-23T04:22:44;8.90;83.20
21493;DHT22;10908;50.690;4.400;2024-03-23T04:25:10;8.90;83.40
21493;DHT22;10908;50.690;4.400;2024-03-23T04:27:39;8.90;83.50
21493;DHT22;10908;50.690;4.400;2024-03-23T04:30:06;8.70;83.20
21493;DHT22;10908;50.690;4.400;2024-03-23T04:32:39;8.60;83.40
21493;DHT22;10908;50.690;4.400;2024-03-23T04:35:05;8.60;83.20
21493;DHT22;10908;50.690;4.400;2024-03-23T04:37:37;8.60;83.10
21493;DHT22;10908;50.690;4.400;2024-03-23T04:40:04;8.60;83.10
21493;DHT22;10908;50.690;4.400;2024-03-23T04:42:30;8.60;83.00
21493;DHT22;10908;50.690;4.400;2024-03-23T04:44:56;8.60;82.90
21493;DHT22;10908;50.690;4.400;2024-03-23T04:47:22;8.60;82.60
21493;DHT22;10908;50.690;4.400;2024-03-23T04:49:48;8.70;82.30
21493;DHT22;10908;50.690;4.400;2024-03-23T04:52:14;8.70;81.90
21493;DHT22;10908;50.690;4.400;2024-03-23T04:54:40;8.60;82.00
21493;DHT22;10908;50.690;4.400;2024-03-23T04:57:06;8.60;82.50
21493;DHT22;10908;50.690;4.400;2024-03-23T04:59:32;8.60;82.50
21493;DHT22;10908;50.690;4.400;2024-03-23T05:01:58;8.70;82.50
21493;DHT22;10908;50.690;4.400;2024-03-23T05:04:25;8.70;82.20
21493;DHT22;10908;50.690;4.400;2024-03-23T05:06:51;8.60;82.30
21493;DHT22;10908;50.690;4.400;2024-03-23T05:09:16;8.60;82.50
21493;DHT22;10908;50.690;4.400;2024-03-23T05:11:42;8.60;81.40
21493;DHT22;10908;50.690;4.400;2024-03-23T05:14:08;8.40;79.60
21493;DHT22;10908;50.690;4.400;2024-03-23T05:16:34;8.30;77.80
21493;DHT22;10908;50.690;4.400;2024-03-23T05:18:59;8.20;76.80
21493;DHT22;10908;50.690;4.400;2024-03-23T05:21:26;8.30;76.80
21493;DHT22;10908;50.690;4.400;2024-03-23T05:23:53;8.30;77.20
21493;DHT22;10908;50.690;4.400;2024-03-23T05:26:19;8.40;77.20
21493;DHT22;10908;50.690;4.400;2024-03-23T05:28:45;8.40;77.90
21493;DHT22;10908;50.690;4.400;2024-03-23T05:31:11;8.40;78.50
21493;DHT22;10908;50.690;4.400;2024-03-23T05:33:37;8.30;79.20
21493;DHT22;10908;50.690;4.400;2024-03-23T05:36:06;8.40;80.00
21493;DHT22;10908;50.690;4.400;2024-03-23T05:38:36;8.40;80.40
21493;DHT22;10908;50.690;4.400;2024-03-23T05:41:02;8.40;80.60
21493;DHT22;10908;50.690;4.400;2024-03-23T05:43:36;8.30;81.00
21493;DHT22;10908;50.690;4.400;2024-03-23T05:46:33;8.30;81.30
21493;DHT22;10908;50.690;4.400;2024-03-23T05:49:02;8.20;81.40
21493;DHT22;10908;50.690;4.400;2024-03-23T05:51:28;8.00;81.20
21493;DHT22;10908;50.690;4.400;2024-03-23T05:53:53;8.10;81.30
21493;DHT22;10908;50.690;4.400;2024-03-23T05:56:20;8.10;81.20
21493;DHT22;10908;50.690;4.400;2024-03-23T05:58:45;8.20;81.20
21493;DHT22;10908;50.690;4.400;2024-03-23T06:01:40;8.10;81.10
21493;DHT22;10908;50.690;4.400;2024-03-23T06:04:05;8.00;81.40
21493;DHT22;10908;50.690;4.400;2024-03-23T06:06:31;7.90;81.30
21493;DHT22;10908;50.690;4.400;2024-03-23T06:08:57;7.90;81.40
21493;DHT22;10908;50.690;4.400;2024-03-23T06:11:23;7.90;81.30
21493;DHT22;10908;50.690;4.400;2024-03-23T06:13:48;8.00;81.40
21493;DHT22;10908;50.690;4.400;2024-03-23T06:16:14;8.10;81.10
21493;DHT22;10908;50.690;4.400;2024-03-23T06:18:40;8.00;81.20
21493;DHT22;10908;50.690;4.400;2024-03-23T06:21:13;8.10;81.30
21493;DHT22;10908;50.690;4.400;2024-03-23T06:23:39;8.10;80.80
21493;DHT22;10908;50.690;4.400;2024-03-23T06:26:04;8.20;80.60
21493;DHT22;10908;50.690;4.400;2024-03-23T06:28:30;8.00;80.40
21493;DHT22;10908;50.690;4.400;2024-03-23T06:30:56;8.00;80.60
21493;DHT22;10908;50.690;4.400;2024-03-23T06:33:21;8.10;80.90
21493;DHT22;10908;50.690;4.400;2024-03-23T06:35:53;8.00;80.60
21493;DHT22;10908;50.690;4.400;2024-03-23T06:38:18;8.00;80.70
21493;DHT22;10908;50.690;4.400;2024-03-23T06:40:44;8.10;80.50
21493;DHT22;10908;50.690;4.400;2024-03-23T06:43:16;8.10;80.50
21493;DHT22;10908;50.690;4.400;2024-03-23T06:45:41;8.20;80.30
21493;DHT22;10908;50.690;4.400;2024-03-23T06:48:07;8.20;80.20
21493;DHT22;10908;50.690;4.400;2024-03-23T06:50:33;8.20;79.90
21493;DHT22;10908;50.690;4.400;2024-03-23T06:52:59;8.10;79.70
21493;DHT22;10908;50.690;4.400;2024-03-23T06:55:30;8.10;79.60
21493;DHT22;10908;50.690;4.400;2024-03-23T06:57:56;8.10;79.40
21493;DHT22;10908;50.690;4.400;2024-03-23T07:00:21;8.10;79.70
21493;DHT22;10908;50.690;4.400;2024-03-23T07:02:47;8.20;79.70
21493;DHT22;10908;50.690;4.400;2024-03-23T07:05:13;8.20;79.30
21493;DHT22;10908;50.690;4.400;2024-03-23T07:07:38;8.10;79.30
21493;DHT22;10908;50.690;4.400;2024-03-23T07:10:05;8.10;79.40
21493;DHT22;10908;50.690;4.400;2024-03-23T07:12:31;8.20;79.60
21493;DHT22;10908;50.690;4.400;2024-03-23T07:14:56;8.20;79.50
21493;DHT22;10908;50.690;4.400;2024-03-23T07:17:22;8.20;79.60
21493;DHT22;10908;50.690;4.400;2024-03-23T07:19:48;8.30;79.60
21493;DHT22;10908;50.690;4.400;2024-03-23T07:22:14;8.30;79.20
21493;DHT22;10908;50.690;4.400;2024-03-23T07:24:40;8.40;79.10
21493;DHT22;10908;50.690;4.400;2024-03-23T07:27:06;8.50;78.70
21493;DHT22;10908;50.690;4.400;2024-03-23T07:29:35;8.40;78.40
21493;DHT22;10908;50.690;4.400;2024-03-23T07:32:01;8.40;78.10
21493;DHT22;10908;50.690;4.400;2024-03-23T07:34:27;8.20;78.00
21493;DHT22;10908;50.690;4.400;2024-03-23T07:36:52;8.20;78.40
21493;DHT22;10908;50.690;4.400;2024-03-23T07:39:18;8.30;78.80
21493;DHT22;10908;50.690;4.400;2024-03-23T07:41:46;8.40;78.60
21493;DHT22;10908;50.690;4.400;2024-03-23T07:44:12;8.40;78.40
21493;DHT22;10908;50.690;4.400;2024-03-23T07:46:38;8.30;78.60
21493;DHT22;10908;50.690;4.400;2024-03-23T07:49:06;8.10;78.70
21493;DHT22;10908;50.690;4.400;2024-03-23T07:51:32;8.20;79.00
21493;DHT22;10908;50.690;4.400;2024-03-23T07:53:59;8.30;78.60
21493;DHT22;10908;50.690;4.400;2024-03-23T07:56:24;8.30;78.70
21493;DHT22;10908;50.690;4.400;2024-03-23T07:58:50;8.20;78.20
21493;DHT22;10908;50.690;4.400;2024-03-23T08:01:16;8.40;78.60
21493;DHT22;10908;50.690;4.400;2024-03-23T08:03:44;8.30;78.60
21493;DHT22;10908;50.690;4.400;2024-03-23T08:06:13;8.40;78.70
21493;DHT22;10908;50.690;4.400;2024-03-23T08:08:40;8.40;78.60
21493;DHT22;10908;50.690;4.400;2024-03-23T08:11:06;8.40;78.50
21493;DHT22;10908;50.690;4.400;2024-03-23T08:13:38;8.40;78.40
21493;DHT22;10908;50.690;4.400;2024-03-23T08:16:04;8.50;78.60
21493;DHT22;10908;50.690;4.400;2024-03-23T08:18:30;8.50;78.20
21493;DHT22;10908;50.690;4.400;2024-03-23T08:23:27;8.40;78.10
21493;DHT22;10908;50.690;4.400;2024-03-23T08:25:58;8.40;78.20
21493;DHT22;10908;50.690;4.400;2024-03-23T08:28:24;8.40;78.10
21493;DHT22;10908;50.690;4.400;2024-03-23T08:30:50;8.40;78.30
21493;DHT22;10908;50.690;4.400;2024-03-23T08:33:16;8.50;77.80
21493;DHT22;10908;50.690;4.400;2024-03-23T08:35:42;8.70;77.50
21493;DHT22;10908;50.690;4.400;2024-03-23T08:38:07;8.60;77.10
21493;DHT22;10908;50.690;4.400;2024-03-23T08:40:33;8.80;77.20
21493;DHT22;10908;50.690;4.400;2024-03-23T08:42:59;8.90;77.60
21493;DHT22;10908;50.690;4.400;2024-03-23T08:45:25;8.90;76.90
21493;DHT22;10908;50.690;4.400;2024-03-23T08:47:51;8.90;77.00
21493;DHT22;10908;50.690;4.400;2024-03-23T08:50:17;8.80;76.40
21493;DHT22;10908;50.690;4.400;2024-03-23T08:52:43;8.80;76.10
21493;DHT22;10908;50.690;4.400;2024-03-23T08:55:09;8.90;75.40
21493;DHT22;10908;50.690;4.400;2024-03-23T08:57:35;8.80;74.50
21493;DHT22;10908;50.690;4.400;2024-03-23T09:00:02;8.90;75.50
21493;DHT22;10908;50.690;4.400;2024-03-23T09:02:28;8.80;75.00
21493;DHT22;10908;50.690;4.400;2024-03-23T09:04:53;8.90;74.70
21493;DHT22;10908;50.690;4.400;2024-03-23T09:07:19;8.80;74.10
21493;DHT22;10908;50.690;4.400;2024-03-23T09:09:44;8.80;73.30
21493;DHT22;10908;50.690;4.400;2024-03-23T09:12:10;9.00;73.70
21493;DHT22;10908;50.690;4.400;2024-03-23T09:14:36;9.00;73.00
21493;DHT22;10908;50.690;4.400;2024-03-23T09:17:01;9.20;72.60
21493;DHT22;10908;50.690;4.400;2024-03-23T09:19:28;9.30;72.20
21493;DHT22;10908;50.690;4.400;2024-03-23T09:21:55;9.40;71.30
21493;DHT22;10908;50.690;4.400;2024-03-23T09:24:20;9.40;71.00
21493;DHT22;10908;50.690;4.400;2024-03-23T09:26:46;9.40;70.90
21493;DHT22;10908;50.690;4.400;2024-03-23T09:29:12;9.30;70.00
21493;DHT22;10908;50.690;4.400;2024-03-23T09:31:37;9.40;70.70
21493;DHT22;10908;50.690;4.400;2024-03-23T09:34:04;9.40;69.90
21493;DHT22;10908;50.690;4.400;2024-03-23T09:36:29;9.40;68.10
21493;DHT22;10908;50.690;4.400;2024-03-23T09:38:55;9.30;68.90
21493;DHT22;10908;50.690;4.400;2024-03-23T09:41:20;9.40;68.70
21493;DHT22;10908;50.690;4.400;2024-03-23T09:43:46;9.40;68.10
21493;DHT22;10908;50.690;4.400;2024-03-23T09:46:14;9.30;68.10
21493;DHT22;10908;50.690;4.400;2024-03-23T09:48:40;9.40;69.30
21493;DHT22;10908;50.690;4.400;2024-03-23T09:51:06;9.60;68.30
21493;DHT22;10908;50.690;4.400;2024-03-23T09:53:34;9.80;68.90
21493;DHT22;10908;50.690;4.400;2024-03-23T09:56:00;9.70;67.40
21493;DHT22;10908;50.690;4.400;2024-03-23T09:58:26;9.80;68.00
21493;DHT22;10908;50.690;4.400;2024-03-23T10:00:51;9.80;65.10
21493;DHT22;10908;50.690;4.400;2024-03-23T10:03:17;9.60;65.70
21493;DHT22;10908;50.690;4.400;2024-03-23T10:05:43;9.50;66.30
21493;DHT22;10908;50.690;4.400;2024-03-23T10:10:41;9.60;66.30
21493;DHT22;10908;50.690;4.400;2024-03-23T10:13:07;9.40;65.60
21493;DHT22;10908;50.690;4.400;2024-03-23T10:15:34;9.20;64.20
21493;DHT22;10908;50.690;4.400;2024-03-23T10:18:17;9.40;65.10
21493;DHT22;10908;50.690;4.400;2024-03-23T10:20:43;9.40;65.30
21493;DHT22;10908;50.690;4.400;2024-03-23T10:23:18;9.40;65.20
21493;DHT22;10908;50.690;4.400;2024-03-23T10:25:44;9.40;64.90
21493;DHT22;10908;50.690;4.400;2024-03-23T10:28:11;9.50;64.70
21493;DHT22;10908;50.690;4.400;2024-03-23T10:30:37;9.50;64.10
21493;DHT22;10908;50.690;4.400;2024-03-23T10:33:12;9.60;64.60
21493;DHT22;10908;50.690;4.400;2024-03-23T10:35:38;9.60;65.60
21493;DHT22;10908;50.690;4.400;2024-03-23T10:38:05;9.70;64.60
21493;DHT22;10908;50.690;4.400;2024-03-23T10:40:35;9.60;64.10
21493;DHT22;10908;50.690;4.400;2024-03-23T10:43:03;9.70;65.90
21493;DHT22;10908;50.690;4.400;2024-03-23T10:45:29;9.90;68.10
21493;DHT22;10908;50.690;4.400;2024-03-23T10:47:55;10.20;68.80
21493;DHT22;10908;50.690;4.400;2024-03-23T10:50:21;10.50;68.00
21493;DHT22;10908;50.690;4.400;2024-03-23T10:52:48;10.70;68.50
21493;DHT22;10908;50.690;4.400;2024-03-23T10:55:17;10.60;64.10
21493;DHT22;10908;50.690;4.400;2024-03-23T10:58:04;10.50;64.00
21493;DHT22;10908;50.690;4.400;2024-03-23T11:00:30;10.40;63.20
21493;DHT22;10908;50.690;4.400;2024-03-23T11:02:55;10.30;61.60
21493;DHT22;10908;50.690;4.400;2024-03-23T11:07:51;10.40;63.80
21493;DHT22;10908;50.690;4.400;2024-03-23T11:10:30;10.40;61.80
21493;DHT22;10908;50.690;4.400;2024-03-23T11:13:22;10.30;61.60
21493;DHT22;10908;50.690;4.400;2024-03-23T11:15:48;10.10;60.30
21493;DHT22;10908;50.690;4.400;2024-03-23T11:18:20;10.30;60.00
21493;DHT22;10908;50.690;4.400;2024-03-23T11:20:46;10.20;60.90
21493;DHT22;10908;50.690;4.400;2024-03-23T11:23:28;10.20;59.60
21493;DHT22;10908;50.690;4.400;2024-03-23T11:25:53;10.00;62.20
21493;DHT22;10908;50.690;4.400;2024-03-23T11:28:19;10.10;62.50
21493;DHT22;10908;50.690;4.400;2024-03-23T11:30:45;10.20;63.10
21493;DHT22;10908;50.690;4.400;2024-03-23T11:33:10;10.30;63.40
21493;DHT22;10908;50.690;4.400;2024-03-23T11:35:40;10.40;61.70
21493;DHT22;10908;50.690;4.400;2024-03-23T11:38:07;10.60;60.70
21493;DHT22;10908;50.690;4.400;2024-03-23T11:40:35;10.80;60.00
21493;DHT22;10908;50.690;4.400;2024-03-23T11:43:03;10.80;58.90
21493;DHT22;10908;50.690;4.400;2024-03-23T11:45:34;11.00;58.90
21493;DHT22;10908;50.690;4.400;2024-03-23T11:48:27;11.20;59.50
21493;DHT22;10908;50.690;4.400;2024-03-23T11:50:57;11.00;56.30
21493;DHT22;10908;50.690;4.400;2024-03-23T11:53:24;10.80;57.80
21493;DHT22;10908;50.690;4.400;2024-03-23T11:58:20;10.20;63.80
21493;DHT22;10908;50.690;4.400;2024-03-23T12:00:59;9.90;64.00
21493;DHT22;10908;50.690;4.400;2024-03-23T12:03:27;9.90;65.30
21493;DHT22;10908;50.690;4.400;2024-03-23T12:05:58;9.90;65.70
21493;DHT22;10908;50.690;4.400;2024-03-23T12:08:29;9.70;67.90
21493;DHT22;10908;50.690;4.400;2024-03-23T12:11:15;9.20;68.70
21493;DHT22;10908;50.690;4.400;2024-03-23T12:13:42;9.00;66.30
21493;DHT22;10908;50.690;4.400;2024-03-23T12:16:11;8.90;64.00
21493;DHT22;10908;50.690;4.400;2024-03-23T12:18:39;9.00;62.30
21493;DHT22;10908;50.690;4.400;2024-03-23T12:21:05;9.30;63.90
21493;DHT22;10908;50.690;4.400;2024-03-23T12:23:31;9.30;63.60
21493;DHT22;10908;50.690;4.400;2024-03-23T12:25:57;9.40;63.90
21493;DHT22;10908;50.690;4.400;2024-03-23T12:28:23;9.40;64.40
21493;DHT22;10908;50.690;4.400;2024-03-23T12:30:49;9.60;64.00
21493;DHT22;10908;50.690;4.400;2024-03-23T12:33:14;9.70;62.60
21493;DHT22;10908;50.690;4.400;2024-03-23T12:35:40;9.80;63.80
21493;DHT22;10908;50.690;4.400;2024-03-23T12:38:06;10.30;63.50
21493;DHT22;10908;50.690;4.400;2024-03-23T12:40:32;10.50;62.10
21493;DHT22;10908;50.690;4.400;2024-03-23T12:42:58;10.70;62.90
21493;DHT22;10908;50.690;4.400;2024-03-23T12:45:24;10.80;60.70
21493;DHT22;10908;50.690;4.400;2024-03-23T12:47:49;10.80;59.60
21493;DHT22;10908;50.690;4.400;2024-03-23T12:50:18;11.00;61.10
21493;DHT22;10908;50.690;4.400;2024-03-23T12:52:43;11.20;61.40
21493;DHT22;10908;50.690;4.400;2024-03-23T12:55:09;11.30;62.40
21493;DHT22;10908;50.690;4.400;2024-03-23T12:57:34;11.20;59.30
21493;DHT22;10908;50.690;4.400;2024-03-23T13:00:00;11.10;60.60
21493;DHT22;10908;50.690;4.400;2024-03-23T13:02:26;11.10;60.10
21493;DHT22;10908;50.690;4.400;2024-03-23T13:04:52;11.10;60.70
21493;DHT22;10908;50.690;4.400;2024-03-23T13:07:19;10.90;59.40
21493;DHT22;10908;50.690;4.400;2024-03-23T13:09:45;10.90;59.30
21493;DHT22;10908;50.690;4.400;2024-03-23T13:12:11;11.00;57.80
21493;DHT22;10908;50.690;4.400;2024-03-23T13:14:40;11.10;57.00
21493;DHT22;10908;50.690;4.400;2024-03-23T13:17:06;11.30;58.40
21493;DHT22;10908;50.690;4.400;2024-03-23T13:19:33;11.10;58.80
21493;DHT22;10908;50.690;4.400;2024-03-23T13:21:59;10.90;59.50
21493;DHT22;10908;50.690;4.400;2024-03-23T13:24:26;10.90;58.90
21493;DHT22;10908;50.690;4.400;2024-03-23T13:26:53;10.70;59.90
21493;DHT22;10908;50.690;4.400;2024-03-23T13:29:19;10.70;60.00
21493;DHT22;10908;50.690;4.400;2024-03-23T13:31:48;10.50;59.80
21493;DHT22;10908;50.690;4.400;2024-03-23T13:34:15;10.30;60.80
21493;DHT22;10908;50.690;4.400;2024-03-23T13:36:47;10.10;61.70
21493;DHT22;10908;50.690;4.400;2024-03-23T13:39:13;10.00;63.90
21493;DHT22;10908;50.690;4.400;2024-03-23T13:41:43;9.90;64.40
21493;DHT22;10908;50.690;4.400;2024-03-23T13:44:10;9.80;65.90
21493;DHT22;10908;50.690;4.400;2024-03-23T13:46:36;9.60;65.50
21493;DHT22;10908;50.690;4.400;2024-03-23T13:49:02;9.40;66.70
21493;DHT22;10908;50.690;4.400;2024-03-23T13:51:28;9.40;68.00
21493;DHT22;10908;50.690;4.400;2024-03-23T13:53:55;9.30;66.70
21493;DHT22;10908;50.690;4.400;2024-03-23T13:56:22;9.30;67.20
21493;DHT22;10908;50.690;4.400;2024-03-23T13:58:48;9.40;67.20
21493;DHT22;10908;50.690;4.400;2024-03-23T14:01:14;9.60;66.70
21493;DHT22;10908;50.690;4.400;2024-03-23T14:03:41;9.80;67.10
21493;DHT22;10908;50.690;4.400;2024-03-23T14:06:07;9.90;66.40
21493;DHT22;10908;50.690;4.400;2024-03-23T14:08:34;9.90;64.80
21493;DHT22;10908;50.690;4.400;2024-03-23T14:11:02;9.90;65.10
21493;DHT22;10908;50.690;4.400;2024-03-23T14:13:29;9.70;64.50
21493;DHT22;10908;50.690;4.400;2024-03-23T14:15:55;9.60;65.20
21493;DHT22;10908;50.690;4.400;2024-03-23T14:18:21;9.60;65.30
21493;DHT22;10908;50.690;4.400;2024-03-23T14:20:50;9.70;63.40
21493;DHT22;10908;50.690;4.400;2024-03-23T14:23:16;9.60;62.60
21493;DHT22;10908;50.690;4.400;2024-03-23T14:25:42;9.70;63.50
21493;DHT22;10908;50.690;4.400;2024-03-23T14:28:08;9.70;62.80
21493;DHT22;10908;50.690;4.400;2024-03-23T14:30:40;9.70;62.40
21493;DHT22;10908;50.690;4.400;2024-03-23T14:33:06;9.60;62.20
21493;DHT22;10908;50.690;4.400;2024-03-23T14:35:31;9.60;62.70
21493;DHT22;10908;50.690;4.400;2024-03-23T14:37:58;9.60;63.10
21493;DHT22;10908;50.690;4.400;2024-03-23T14:40:24;9.80;64.00
21493;DHT22;10908;50.690;4.400;2024-03-23T14:42:53;9.50;63.80
21493;DHT22;10908;50.690;4.400;2024-03-23T14:45:20;9.50;66.60
21493;DHT22;10908;50.690;4.400;2024-03-23T14:47:46;9.50;65.80
21493;DHT22;10908;50.690;4.400;2024-03-23T14:50:11;9.60;66.60
21493;DHT22;10908;50.690;4.400;2024-03-23T14:52:41;9.60;67.10
21493;DHT22;10908;50.690;4.400;2024-03-23T14:55:07;9.70;65.60
21493;DHT22;10908;50.690;4.400;2024-03-23T14:57:34;9.80;66.70
21493;DHT22;10908;50.690;4.400;2024-03-23T15:00:00;9.90;67.10
21493;DHT22;10908;50.690;4.400;2024-03-23T15:02:26;9.80;65.20
21493;DHT22;10908;50.690;4.400;2024-03-23T15:04:54;9.80;65.00
21493;DHT22;10908;50.690;4.400;2024-03-23T15:07:19;9.80;64.70
21493;DHT22;10908;50.690;4.400;2024-03-23T15:09:45;9.70;63.30
21493;DHT22;10908;50.690;4.400;2024-03-23T15:12:11;9.60;64.00
21493;DHT22;10908;50.690;4.400;2024-03-23T15:14:37;9.70;64.80
21493;DHT22;10908;50.690;4.400;2024-03-23T15:17:03;9.80;64.60
21493;DHT22;10908;50.690;4.400;2024-03-23T15:19:32;9.80;64.70
21493;DHT22;10908;50.690;4.400;2024-03-23T15:21:58;9.80;63.70
21493;DHT22;10908;50.690;4.400;2024-03-23T15:24:23;9.90;63.40
21493;DHT22;10908;50.690;4.400;2024-03-23T15:26:49;9.80;62.70
21493;DHT22;10908;50.690;4.400;2024-03-23T15:29:17;9.70;60.00
21493;DHT22;10908;50.690;4.400;2024-03-23T15:31:43;9.80;60.90
21493;DHT22;10908;50.690;4.400;2024-03-23T15:34:09;9.90;60.30
21493;DHT22;10908;50.690;4.400;2024-03-23T15:36:37;10.00;60.40
21493;DHT22;10908;50.690;4.400;2024-03-23T15:39:06;10.10;59.60
21493;DHT22;10908;50.690;4.400;2024-03-23T15:41:32;10.10;60.00
21493;DHT22;10908;50.690;4.400;2024-03-23T15:43:59;10.20;60.40
21493;DHT22;10908;50.690;4.400;2024-03-23T15:46:25;10.40;60.40
21493;DHT22;10908;50.690;4.400;2024-03-23T15:48:51;10.40;60.60
21493;DHT22;10908;50.690;4.400;2024-03-23T15:51:16;10.40;60.30
21493;DHT22;10908;50.690;4.400;2024-03-23T15:53:43;10.30;60.40
21493;DHT22;10908;50.690;4.400;2024-03-23T15:56:09;10.40;60.80
21493;DHT22;10908;50.690;4.400;2024-03-23T15:58:35;10.40;61.00
21493;DHT22;10908;50.690;4.400;2024-03-23T16:01:08;10.30;61.70
21493;DHT22;10908;50.690;4.400;2024-03-23T16:03:34;10.40;61.10
21493;DHT22;10908;50.690;4.400;2024-03-23T16:06:02;10.50;61.10
21493;DHT22;10908;50.690;4.400;2024-03-23T16:08:29;10.60;60.00
21493;DHT22;10908;50.690;4.400;2024-03-23T16:11:00;10.50;57.20
21493;DHT22;10908;50.690;4.400;2024-03-23T16:13:26;10.50;58.20
21493;DHT22;10908;50.690;4.400;2024-03-23T16:15:58;10.40;58.10
21493;DHT22;10908;50.690;4.400;2024-03-23T16:18:25;10.40;58.90
21493;DHT22;10908;50.690;4.400;2024-03-23T16:20:59;10.40;57.30
21493;DHT22;10908;50.690;4.400;2024-03-23T16:23:25;10.40;54.60
21493;DHT22;10908;50.690;4.400;2024-03-23T16:25:53;10.30;55.00
21493;DHT22;10908;50.690;4.400;2024-03-23T16:28:35;10.20;54.20
21493;DHT22;10908;50.690;4.400;2024-03-23T16:31:03;10.30;54.40
21493;DHT22;10908;50.690;4.400;2024-03-23T16:33:29;10.30;54.50
21493;DHT22;10908;50.690;4.400;2024-03-23T16:38:31;10.30;55.70
21493;DHT22;10908;50.690;4.400;2024-03-23T16:41:08;10.30;56.80
21493;DHT22;10908;50.690;4.400;2024-03-23T16:43:35;10.30;56.10
21493;DHT22;10908;50.690;4.400;2024-03-23T16:46:09;10.50;57.00